Terminal Aerodrome Forecast
Issued by NWS

Home | Current Version | Previous Version | Text Only | Print | Product List | Glossary On
Versions: 1 2 3 4 5 6 7 8 9 10 11 12 13 14 15 16 17 18
000
FTUS41 KCAR 301759
TAFPQI
TAF
KPQI 301759Z 3018/3118 15007KT 1 1/2SM -SN OVC015
     FM302100 08004KT 3/4SM -SN OVC010
     FM310600 33012G20KT 2SM -SN OVC015
     FM310900 34020G35KT 1 1/2SM -SN BLSN OVC020
      AMD LTD TO CLD VIS AND WIND=

USA.gov is the U.S. government's official web portal to all federal, state and local government web resources and services.